Time;durP1;ratioP1;P1;durP2;ratioP2;P2;SDS_P1;SDS_P2;PMS_P1;PMS_P2;Temp;Humidity;BMP_temperature;BMP_pressure;BME280_temperature;BME280_humidity;BME280_pressure;Samples;Min_cycle;Max_cycle;Signal;HPM_P1;HPM_P2
2022/11/16 00:00:38;;;;;;;10.00;5.07;;;;;;;12.67;100.00;98419.72;12220196;19;20540;-82
2022/11/16 00:04:40;;;;;;;9.32;4.70;;;;;;;12.67;100.00;98416.94;12233562;19;20045;-82
2022/11/16 00:09:20;;;;;;;8.55;4.20;;;;;;;12.67;100.00;98413.31;12239157;19;20081;-85
2022/11/16 00:13:08;;;;;;;7.32;3.83;;;;;;;12.68;100.00;98406.69;12205712;19;20007;-83
2022/11/16 00:17:09;;;;;;;6.77;4.67;;;;;;;12.67;100.00;98402.28;12229746;19;20011;-83
2022/11/16 00:21:11;;;;;;;9.48;4.30;;;;;;;12.66;100.00;98406.97;12206237;19;20263;-83
2022/11/16 00:25:12;;;;;;;13.25;4.00;;;;;;;12.64;100.00;98406.47;12221432;19;20003;-84
2022/11/16 00:29:16;;;;;;;7.43;4.18;;;;;;;12.64;100.00;98403.72;12228074;19;20598;-83
2022/11/16 00:33:18;;;;;;;6.80;3.30;;;;;;;12.64;100.00;98398.19;12202185;19;20684;-83
2022/11/16 00:37:20;;;;;;;8.10;4.00;;;;;;;12.66;100.00;98397.88;12224065;19;20018;-84
2022/11/16 00:41:21;;;;;;;9.52;3.83;;;;;;;12.65;100.00;98404.53;12218825;19;20007;-83
2022/11/16 00:45:23;;;;;;;6.65;3.72;;;;;;;12.64;100.00;98403.72;12201746;19;20018;-84
2022/11/16 00:49:24;;;;;;;6.82;3.50;;;;;;;12.62;100.00;98400.41;12225181;19;20027;-84
2022/11/16 00:53:26;;;;;;;5.70;3.10;;;;;;;12.63;100.00;98407.59;12220856;19;20103;-84
2022/11/16 00:57:28;;;;;;;7.80;3.97;;;;;;;12.62;100.00;98400.41;12201781;19;20018;-84
2022/11/16 01:01:30;;;;;;;5.68;3.25;;;;;;;12.63;100.00;98412.28;12221614;19;20180;-85
2022/11/16 01:05:31;;;;;;;8.75;3.60;;;;;;;12.62;100.00;98413.41;12221060;19;20350;-84
2022/11/16 01:09:33;;;;;;;6.45;3.33;;;;;;;12.60;100.00;98402.66;12202382;19;20034;-84
2022/11/16 01:13:35;;;;;;;11.30;3.65;;;;;;;12.60;100.00;98401.84;12219438;19;20030;-85
2022/11/16 01:17:39;;;;;;;6.90;3.30;;;;;;;12.58;100.00;98390.25;12218535;19;20010;-84
2022/11/16 01:21:40;;;;;;;12.63;3.50;;;;;;;12.56;100.00;98390.56;12199356;19;20034;-84
2022/11/16 01:25:42;;;;;;;6.22;3.75;;;;;;;12.53;100.00;98385.63;12223733;19;20038;-85
2022/11/16 01:29:44;;;;;;;9.90;3.95;;;;;;;12.51;100.00;98376.81;12219393;19;20018;-83
2022/11/16 01:33:46;;;;;;;4.97;3.23;;;;;;;12.47;100.00;98381.28;12191736;19;20460;-84
2022/11/16 01:37:53;;;;;;;9.70;3.65;;;;;;;12.43;100.00;98377.47;12223725;19;20090;-83
2022/11/16 01:41:56;;;;;;;9.20;3.90;;;;;;;12.40;100.00;98370.59;12222424;19;20010;-83
2022/11/16 01:45:57;;;;;;;8.45;4.30;;;;;;;12.40;100.00;98373.34;12206498;19;20030;-84
2022/11/16 01:50:07;;;;;;;5.95;3.92;;;;;;;12.37;100.00;98373.94;12222231;19;20038;-82
2022/11/16 01:54:12;;;;;;;5.13;3.20;;;;;;;12.34;100.00;98371.78;12212433;19;19999;-81
2022/11/16 01:58:26;;;;;;;6.18;3.08;;;;;;;12.32;100.00;98362.97;12266103;19;20010;-81
2022/11/16 02:26:44;;;;;;;5.75;2.80;;;;;;;12.40;100.00;98345.72;12228183;19;20019;-83
2022/11/16 02:30:49;;;;;;;4.80;3.08;;;;;;;12.43;100.00;98347.06;12207799;19;20003;-82
2022/11/16 02:35:10;;;;;;;7.63;3.63;;;;;;;12.41;100.00;98350.16;12222451;19;20014;-83
2022/11/16 02:39:17;;;;;;;8.50;3.60;;;;;;;12.31;100.00;98345.59;12203886;19;20013;-81
2022/11/16 02:43:28;;;;;;;10.85;4.72;;;;;;;12.19;100.00;98341.59;12226492;19;20082;-82
2022/11/16 02:47:33;;;;;;;8.23;4.43;;;;;;;12.15;100.00;98343.31;12226095;19;20011;-82
2022/11/16 02:51:38;;;;;;;8.30;4.95;;;;;;;12.12;100.00;98346.69;12201460;19;20002;-83
2022/11/16 02:55:40;;;;;;;9.77;5.50;;;;;;;12.10;100.00;98349.72;12224342;19;20010;-82
2022/11/16 02:59:47;;;;;;;7.97;5.35;;;;;;;12.10;100.00;98341.44;12224734;19;20026;-82
2022/11/16 03:04:07;;;;;;;10.52;6.45;;;;;;;12.12;100.00;98347.50;12234504;19;20038;-82
2022/11/16 03:08:35;;;;;;;12.73;7.32;;;;;;;12.03;100.00;98344.56;12251995;19;20040;-82
2022/11/16 03:12:39;;;;;;;16.40;8.13;;;;;;;11.96;100.00;98349.63;12214557;19;20013;-82
2022/11/16 03:16:47;;;;;;;16.25;8.00;;;;;;;11.91;100.00;98337.81;12240313;19;20013;-82
2022/11/16 03:20:55;;;;;;;15.48;8.32;;;;;;;11.87;100.00;98345.88;12238915;19;20078;-81
2022/11/16 03:24:59;;;;;;;17.95;9.50;;;;;;;11.82;100.00;98340.38;12211892;19;19998;-82
2022/11/16 03:29:28;;;;;;;19.60;10.10;;;;;;;11.79;100.00;98339.03;12235279;19;20023;-82
2022/11/16 03:33:46;;;;;;;19.92;10.48;;;;;;;11.80;100.00;98335.13;12210836;19;20452;-81
2022/11/16 03:37:53;;;;;;;22.63;11.77;;;;;;;11.83;100.00;98318.00;12233598;19;20021;-82
2022/11/16 03:41:59;;;;;;;20.70;10.27;;;;;;;11.84;100.00;98302.28;12227898;19;20022;-82
2022/11/16 03:46:01;;;;;;;19.55;9.63;;;;;;;11.79;100.00;98316.94;12208855;19;20014;-84
2022/11/16 03:50:03;;;;;;;19.67;10.48;;;;;;;11.76;100.00;98317.53;12229178;19;20046;-83
2022/11/16 03:54:05;;;;;;;16.37;9.37;;;;;;;11.76;100.00;98327.75;12225365;19;20447;-83
2022/11/16 03:58:08;;;;;;;14.57;8.85;;;;;;;11.73;100.00;98333.88;12208562;19;20006;-83
2022/11/16 04:02:12;;;;;;;17.15;9.35;;;;;;;11.73;100.00;98351.25;12227635;19;20021;-82
2022/11/16 04:28:15;;;;;;;8.02;5.15;;;;;;;11.68;100.00;98326.44;12202507;19;20018;-83
2022/11/16 04:41:03;;;;;;;7.85;4.63;;;;;;;11.70;100.00;98351.81;12220452;19;20006;-83
2022/11/16 04:49:27;;;;;;;11.32;5.35;;;;;;;11.70;100.00;98362.88;12204207;19;20014;-82
2022/11/16 04:53:31;;;;;;;10.57;5.93;;;;;;;11.68;100.00;98367.03;12262427;19;20006;-82
2022/11/16 04:57:41;;;;;;;12.05;6.93;;;;;;;11.66;100.00;98367.34;12214913;19;20067;-82
2022/11/16 05:06:04;;;;;;;12.00;7.43;;;;;;;11.69;100.00;98361.22;12234060;19;20325;-83
2022/11/16 05:10:07;;;;;;;15.05;7.97;;;;;;;11.67;100.00;98373.66;12212045;19;20122;-82
2022/11/16 05:14:09;;;;;;;14.93;8.80;;;;;;;11.66;100.00;98378.38;12230260;19;20007;-82
2022/11/16 05:18:13;;;;;;;15.23;8.48;;;;;;;11.64;100.00;98375.06;12205428;19;20021;-81
2022/11/16 05:22:14;;;;;;;16.35;9.32;;;;;;;11.64;100.00;98377.84;12221938;19;20479;-82
2022/11/16 05:26:16;;;;;;;18.60;10.15;;;;;;;11.58;100.00;98374.28;12219047;19;20014;-81
2022/11/16 05:30:18;;;;;;;18.63;9.98;;;;;;;11.59;100.00;98375.13;12197882;19;20010;-78
2022/11/16 05:34:22;;;;;;;17.20;9.32;;;;;;;11.58;100.00;98376.25;12221083;19;20038;-80
2022/11/16 05:38:24;;;;;;;20.70;10.48;;;;;;;11.59;100.00;98375.13;12216898;19;20023;-80
2022/11/16 05:42:29;;;;;;;18.17;9.68;;;;;;;11.61;100.00;98372.91;12184488;19;20034;-80
2022/11/16 05:46:32;;;;;;;15.80;8.75;;;;;;;11.60;100.00;98382.28;12209228;19;20065;-80
2022/11/16 05:50:35;;;;;;;15.07;8.05;;;;;;;11.61;100.00;98381.19;12209311;19;20614;-80
2022/11/16 05:54:52;;;;;;;16.75;8.48;;;;;;;11.61;100.00;98383.94;12183474;19;20049;-80
2022/11/16 05:58:55;;;;;;;16.73;9.18;;;;;;;11.57;100.00;98383.69;12208067;19;20484;-80
2022/11/16 06:02:56;;;;;;;17.77;9.70;;;;;;;11.57;100.00;98389.22;12205055;19;20007;-80
2022/11/16 06:07:02;;;;;;;18.83;9.65;;;;;;;11.57;100.00;98397.50;12187531;19;20003;-81
2022/11/16 06:11:09;;;;;;;16.98;9.88;;;;;;;11.56;100.00;98406.88;12205001;19;20034;-81
2022/11/16 06:15:12;;;;;;;17.90;9.02;;;;;;;11.62;100.00;98402.13;12185381;19;20007;-81
2022/11/16 06:19:14;;;;;;;14.98;8.73;;;;;;;11.63;100.00;98396.31;12207862;19;20022;-80
2022/11/16 06:23:16;;;;;;;19.48;9.65;;;;;;;11.62;100.00;98399.38;12205289;19;20002;-81
2022/11/16 06:27:19;;;;;;;17.20;9.27;;;;;;;11.59;100.00;98395.25;12188218;19;20019;-80
2022/11/16 06:31:21;;;;;;;13.80;6.60;;;;;;;11.58;100.00;98398.31;12199344;19;20105;-81
2022/11/16 06:35:23;;;;;;;14.73;8.48;;;;;;;11.55;100.00;98409.94;12194873;19;20029;-82
2022/11/16 06:39:25;;;;;;;14.93;8.07;;;;;;;11.53;100.00;98412.16;12172277;19;20007;-81
2022/11/16 06:43:27;;;;;;;15.93;8.45;;;;;;;11.51;100.00;98420.72;12209809;19;20010;-81
2022/11/16 06:47:29;;;;;;;16.48;8.30;;;;;;;11.51;100.00;98419.88;12210695;19;20006;-81
2022/11/16 06:51:31;;;;;;;14.88;7.38;;;;;;;11.48;100.00;98420.47;12189986;19;20480;-81
2022/11/16 06:55:33;;;;;;;16.25;8.23;;;;;;;11.39;100.00;98418.34;12211502;19;20007;-82
2022/11/16 06:59:37;;;;;;;12.35;7.88;;;;;;;11.37;100.00;98423.31;12211412;19;20397;-82
2022/11/16 07:03:39;;;;;;;14.32;7.85;;;;;;;11.32;100.00;98430.81;12187235;19;20074;-81
2022/11/16 07:07:42;;;;;;;15.35;8.48;;;;;;;11.28;100.00;98436.09;12211882;19;20014;-81
2022/11/16 07:11:44;;;;;;;23.00;9.30;;;;;;;11.27;100.00;98436.34;12208926;19;20456;-81
2022/11/16 07:15:48;;;;;;;18.02;9.98;;;;;;;11.35;100.00;98439.31;12185728;19;20011;-81
2022/11/16 07:19:50;;;;;;;19.52;10.02;;;;;;;11.40;100.00;98436.53;12208820;19;20014;-81
2022/11/16 07:23:58;;;;;;;17.50;9.63;;;;;;;11.43;100.00;98442.59;12207433;19;20018;-81
2022/11/16 07:28:00;;;;;;;22.35;10.93;;;;;;;11.42;100.00;98447.25;12189489;19;20014;-81
2022/11/16 07:32:12;;;;;;;21.98;11.60;;;;;;;11.46;100.00;98442.00;12209026;19;20027;-81
2022/11/16 07:36:47;;;;;;;19.77;10.75;;;;;;;11.51;100.00;98450.22;12187816;19;20014;-82
2022/11/16 07:40:51;;;;;;;23.20;10.35;;;;;;;11.53;100.00;98448.00;12209993;19;20003;-82
2022/11/16 07:44:55;;;;;;;20.67;10.65;;;;;;;11.55;100.00;98454.06;12209195;19;20029;-81
2022/11/16 07:48:57;;;;;;;21.90;10.60;;;;;;;11.53;100.00;98445.25;12189248;19;20390;-81
2022/11/16 07:53:34;;;;;;;19.17;10.13;;;;;;;11.52;100.00;98451.88;12220865;19;20003;-81
2022/11/16 07:57:36;;;;;;;24.93;11.20;;;;;;;11.52;100.00;98451.88;12204957;19;20014;-81
2022/11/16 08:01:40;;;;;;;23.35;10.55;;;;;;;11.56;100.00;98462.03;12222678;19;20471;-82
2022/11/16 08:05:45;;;;;;;17.92;10.57;;;;;;;11.69;100.00;98465.25;12251484;19;20007;-83
2022/11/16 08:09:48;;;;;;;21.00;9.95;;;;;;;11.79;100.00;98470.69;12249044;19;20010;-82
2022/11/16 08:13:50;;;;;;;15.43;9.32;;;;;;;11.88;100.00;98481.94;12223896;19;20011;-82
2022/11/16 08:17:57;;;;;;;17.00;9.15;;;;;;;11.92;100.00;98471.97;12222383;19;20002;-83
2022/11/16 08:22:02;;;;;;;16.85;9.23;;;;;;;12.06;100.00;98486.72;12199884;19;20014;-82
2022/11/16 08:26:12;;;;;;;14.32;7.93;;;;;;;12.22;100.00;98490.13;12221622;19;20352;-82
2022/11/16 08:30:14;;;;;;;12.40;7.65;;;;;;;12.41;100.00;98499.31;12198957;19;20410;-82
2022/11/16 08:34:18;;;;;;;13.02;7.18;;;;;;;12.46;100.00;98503.94;12219746;19;20003;-82
2022/11/16 08:38:23;;;;;;;14.07;7.97;;;;;;;12.41;100.00;98512.31;12219201;19;20396;-82
2022/11/16 08:42:25;;;;;;;13.07;6.85;;;;;;;12.38;100.00;98512.91;12197744;19;20014;-82
2022/11/16 08:46:27;;;;;;;14.60;7.60;;;;;;;12.34;100.00;98528.41;12222883;19;20011;-82
2022/11/16 08:50:38;;;;;;;16.92;7.90;;;;;;;12.30;100.00;98529.00;12225520;19;20019;-82
2022/11/16 08:55:00;;;;;;;12.38;7.28;;;;;;;12.43;100.00;98529.41;12241613;19;20017;-81
2022/11/16 08:59:02;;;;;;;12.82;6.68;;;;;;;12.56;100.00;98525.97;12264484;19;20031;-81
2022/11/16 09:03:04;;;;;;;12.13;5.10;;;;;;;12.72;100.00;98526.59;12220463;19;20035;-83
2022/11/16 09:07:05;;;;;;;10.68;6.38;;;;;;;12.83;100.00;98535.59;12208608;19;20007;-82
2022/11/16 09:11:14;;;;;;;13.10;6.53;;;;;;;12.81;100.00;98535.88;12237534;19;20018;-82
2022/11/16 09:15:18;;;;;;;18.40;6.90;;;;;;;12.76;100.00;98542.28;12207114;19;20014;-82
2022/11/16 09:19:20;;;;;;;15.13;7.03;;;;;;;12.75;100.00;98551.69;12226981;19;20476;-82
2022/11/16 09:23:21;;;;;;;16.98;8.80;;;;;;;12.85;100.00;98553.53;12225952;19;20017;-82
2022/11/16 09:27:26;;;;;;;15.60;7.63;;;;;;;13.02;100.00;98547.50;12204266;19;20010;-81
2022/11/16 09:31:32;;;;;;;16.77;7.43;;;;;;;13.18;100.00;98551.72;12217181;19;20015;-82
2022/11/16 09:35:34;;;;;;;10.55;5.75;;;;;;;13.36;100.00;98555.63;12216191;19;20025;-82
2022/11/16 09:39:36;;;;;;;9.18;4.55;;;;;;;13.45;100.00;98553.84;12197946;19;20026;-82
2022/11/16 09:44:06;;;;;;;8.65;4.07;;;;;;;13.58;100.00;98555.03;12215292;19;20010;-81
2022/11/16 09:48:12;;;;;;;9.57;3.33;;;;;;;13.71;100.00;98563.69;12199194;19;20018;-82
2022/11/16 09:52:32;;;;;;;9.38;4.03;;;;;;;13.70;100.00;98553.75;12214019;19;20039;-82
2022/11/16 09:56:39;;;;;;;7.78;3.38;;;;;;;13.78;100.00;98553.06;12213244;19;20025;-81
2022/11/16 10:00:48;;;;;;;5.45;2.80;;;;;;;13.89;100.00;98552.59;12194056;19;20040;-81
2022/11/16 10:05:13;;;;;;;8.13;3.40;;;;;;;14.05;100.00;98558.69;12213819;19;20099;-81
2022/11/16 10:09:15;;;;;;;7.35;3.05;;;;;;;14.18;100.00;98553.50;12193588;19;20868;-81
2022/11/16 10:13:31;;;;;;;6.32;1.90;;;;;;;14.13;100.00;98563.56;12209937;19;20042;-81
2022/11/16 10:17:48;;;;;;;5.13;1.95;;;;;;;14.08;100.00;98562.81;12214516;19;20380;-81
2022/11/16 10:22:26;;;;;;;5.28;1.50;;;;;;;14.15;100.00;98563.22;12191392;19;20072;-81
2022/11/16 10:26:46;;;;;;;5.97;1.75;;;;;;;14.11;100.00;98567.75;12213873;19;20038;-81
2022/11/16 10:31:13;;;;;;;7.72;2.28;;;;;;;14.13;100.00;98568.28;12195107;19;20007;-81
2022/11/16 10:35:28;;;;;;;10.13;1.90;;;;;;;14.16;100.00;98559.34;12212151;19;20030;-80
2022/11/16 10:39:32;;;;;;;7.20;1.67;;;;;;;14.13;100.00;98559.97;12190415;19;20023;-81
2022/11/16 10:43:34;;;;;;;7.85;1.90;;;;;;;14.11;100.00;98551.94;12208995;19;20011;-81
2022/11/16 10:47:49;;;;;;;7.22;2.35;;;;;;;14.12;100.00;98542.50;12213128;19;20420;-81
2022/11/16 10:51:52;;;;;;;5.85;2.00;;;;;;;14.14;100.00;98540.25;12186567;19;20007;-81
2022/11/16 10:56:18;;;;;;;5.72;2.00;;;;;;;14.19;100.00;98544.88;12212275;19;20054;-81
2022/11/16 11:00:43;;;;;;;7.97;1.67;;;;;;;14.26;100.00;98533.41;12189585;19;20039;-81
2022/11/16 11:05:01;;;;;;;9.07;1.98;;;;;;;14.32;100.00;98527.44;12209145;19;20003;-81
2022/11/16 11:09:27;;;;;;;5.13;1.45;;;;;;;14.44;100.00;98521.41;12210305;19;20014;-81
2022/11/16 11:13:33;;;;;;;5.22;1.63;;;;;;;14.61;100.00;98522.81;12184229;19;20003;-80
2022/11/16 11:17:46;;;;;;;5.90;1.40;;;;;;;14.94;100.00;98521.53;12209331;19;20002;-81
2022/11/16 11:21:48;;;;;;;7.35;1.70;;;;;;;15.35;100.00;98517.88;12185889;19;20030;-81
2022/11/16 11:25:52;;;;;;;3.93;1.60;;;;;;;15.35;98.42;98517.88;12219867;19;20003;-81
2022/11/16 11:29:57;;;;;;;9.30;1.60;;;;;;;15.21;97.24;98519.84;12220731;19;20014;-80
2022/11/16 11:34:16;;;;;;;8.70;1.70;;;;;;;15.00;97.80;98519.47;12197227;19;20019;-80
2022/11/16 11:38:18;;;;;;;10.43;1.90;;;;;;;15.00;97.89;98516.72;12222338;19;20015;-81
2022/11/16 11:42:22;;;;;;;9.68;1.83;;;;;;;14.85;96.24;98504.00;12194810;19;20010;-80
2022/11/16 11:46:27;;;;;;;7.38;2.10;;;;;;;15.03;95.74;98505.81;12221524;19;20010;-81
2022/11/16 11:50:55;;;;;;;5.85;1.33;;;;;;;15.40;93.12;98503.84;12214318;19;20373;-81
2022/11/16 11:54:59;;;;;;;5.78;1.80;;;;;;;15.44;92.56;98504.88;12194882;19;20021;-81
2022/11/16 11:59:03;;;;;;;5.75;1.65;;;;;;;15.46;92.27;98496.22;12220357;19;20458;-80
2022/11/16 12:03:23;;;;;;;7.93;1.58;;;;;;;15.52;90.48;98499.72;12213098;19;20436;-81
2022/11/16 12:07:35;;;;;;;6.88;1.52;;;;;;;15.37;90.27;98495.34;12196341;19;20024;-81
2022/11/16 12:11:52;;;;;;;4.03;1.10;;;;;;;15.15;90.22;98487.81;12218133;19;20563;-81
2022/11/16 12:16:01;;;;;;;5.88;1.27;;;;;;;15.04;91.19;98485.25;12196557;19;20408;-81
2022/11/16 12:20:28;;;;;;;5.40;1.65;;;;;;;15.02;89.93;98478.38;12220236;19;20034;-82
2022/11/16 12:24:41;;;;;;;13.20;2.13;;;;;;;15.09;90.47;98475.19;12190345;19;20397;-81
2022/11/16 12:29:01;;;;;;;9.75;2.33;;;;;;;15.67;90.88;98469.63;12215379;19;20600;-80
2022/11/16 12:33:15;;;;;;;9.35;1.70;;;;;;;16.04;88.56;98472.31;12210273;19;20014;-80
2022/11/16 12:37:38;;;;;;;4.45;1.50;;;;;;;15.93;84.75;98467.03;12191741;19;20041;-81
2022/11/16 12:41:52;;;;;;;4.03;1.02;;;;;;;15.76;85.00;98453.03;12219817;19;20401;-81
2022/11/16 12:46:04;;;;;;;11.27;1.70;;;;;;;15.65;85.03;98454.41;12189292;19;20015;-81
2022/11/16 12:50:31;;;;;;;6.25;1.40;;;;;;;15.63;84.37;98448.34;12209898;19;20102;-82
2022/11/16 12:54:47;;;;;;;4.00;1.35;;;;;;;15.55;85.73;98440.78;12187828;19;20011;-81
2022/11/16 12:59:45;;;;;;;5.10;1.48;;;;;;;15.54;85.58;98441.91;12216908;19;20059;-82
2022/11/16 13:03:59;;;;;;;4.32;1.45;;;;;;;15.56;86.08;98434.09;12192816;19;20007;-81
2022/11/16 13:08:11;;;;;;;4.22;1.02;;;;;;;15.57;85.12;98435.72;12216466;19;20022;-81
2022/11/16 13:12:16;;;;;;;7.50;1.33;;;;;;;15.65;85.21;98426.66;12228189;19;20007;-81
2022/11/16 13:16:19;;;;;;;4.88;1.45;;;;;;;15.65;83.57;98421.91;12263673;19;19998;-80
2022/11/16 13:21:05;;;;;;;5.68;1.30;;;;;;;15.55;84.46;98418.56;12258244;19;20006;-82
2022/11/16 13:25:25;;;;;;;4.65;1.00;;;;;;;15.46;83.26;98408.22;12189932;19;20049;-82
2022/11/16 13:29:36;;;;;;;4.43;1.65;;;;;;;15.43;83.79;98406.06;12218054;19;20018;-82
2022/11/16 13:33:47;;;;;;;3.55;1.15;;;;;;;15.31;84.54;98403.03;12193188;19;20011;-83
2022/11/16 13:37:52;;;;;;;4.68;1.60;;;;;;;15.07;84.97;98399.75;12215851;19;20476;-81
2022/11/16 13:42:11;;;;;;;9.95;1.73;;;;;;;14.81;85.67;98387.31;12217189;19;20010;-81
2022/11/16 13:46:13;;;;;;;7.07;1.38;;;;;;;14.64;86.42;98381.63;12193378;19;20015;-80
2022/11/16 13:50:38;;;;;;;4.78;1.50;;;;;;;14.52;87.07;98382.16;12213657;19;20003;-80
2022/11/16 13:54:44;;;;;;;6.03;1.83;;;;;;;14.47;87.51;98373.91;12187170;19;20012;-81
2022/11/16 13:58:54;;;;;;;6.68;1.55;;;;;;;14.43;87.46;98381.22;12214838;19;20028;-80
2022/11/16 14:03:14;;;;;;;6.88;1.42;;;;;;;14.47;87.11;98373.91;12209353;19;20002;-80
2022/11/16 14:07:28;;;;;;;9.52;2.10;;;;;;;14.53;86.74;98371.88;12188434;19;20054;-81
2022/11/16 14:11:33;;;;;;;4.30;1.23;;;;;;;14.55;87.58;98373.22;12213171;19;20015;-80
2022/11/16 14:15:36;;;;;;;6.57;1.90;;;;;;;14.57;87.28;98368.19;12187803;19;20007;-80
2022/11/16 14:19:46;;;;;;;5.95;1.58;;;;;;;14.51;87.74;98354.69;12201176;19;20031;-80
2022/11/16 14:23:48;;;;;;;7.88;2.15;;;;;;;14.42;88.71;98353.78;12205783;19;20042;-81
2022/11/16 14:27:54;;;;;;;3.92;1.50;;;;;;;14.40;89.09;98348.56;12187303;19;20006;-80
2022/11/16 14:31:58;;;;;;;6.88;1.67;;;;;;;14.40;89.05;98345.00;12193276;19;20015;-81
2022/11/16 14:36:02;;;;;;;5.03;1.27;;;;;;;14.35;90.33;98351.44;12209733;19;20476;-80
2022/11/16 14:40:15;;;;;;;9.88;1.50;;;;;;;14.27;90.57;98350.22;12187005;19;20007;-81
2022/11/16 14:44:26;;;;;;;8.27;1.63;;;;;;;14.23;90.62;98349.22;12205157;19;20009;-81
2022/11/16 14:48:28;;;;;;;5.00;1.40;;;;;;;14.23;90.74;98356.69;12188412;19;20020;-81
2022/11/16 14:52:42;;;;;;;6.23;1.17;;;;;;;14.22;92.03;98346.72;12203507;19;20096;-80
2022/11/16 14:56:55;;;;;;;4.28;1.63;;;;;;;14.19;93.15;98348.19;12207210;19;20010;-81
2022/11/16 15:00:59;;;;;;;9.40;2.10;;;;;;;14.16;94.03;98346.03;12203693;19;20011;-81
2022/11/16 15:05:02;;;;;;;5.47;1.35;;;;;;;14.12;95.13;98345.81;12219233;19;20021;-81
2022/11/16 15:09:04;;;;;;;7.97;1.40;;;;;;;14.07;95.45;98339.59;12219666;19;20035;-81
2022/11/16 15:13:06;;;;;;;7.65;2.38;;;;;;;14.04;95.99;98340.19;12195198;19;20030;-80
2022/11/16 15:17:15;;;;;;;4.03;1.10;;;;;;;13.97;96.52;98335.06;12220044;19;20081;-81
2022/11/16 15:21:21;;;;;;;6.38;1.50;;;;;;;13.90;97.36;98334.66;12199307;19;20015;-81
2022/11/16 15:25:34;;;;;;;4.97;1.25;;;;;;;13.74;98.51;98341.63;12222435;19;20006;-82
2022/11/16 15:29:36;;;;;;;6.00;1.20;;;;;;;13.50;98.09;98337.06;12218330;19;20041;-81
2022/11/16 15:33:42;;;;;;;5.43;1.10;;;;;;;13.34;98.59;98333.78;12186356;19;20013;-82
2022/11/16 15:37:44;;;;;;;8.23;1.83;;;;;;;13.25;99.08;98319.00;12222948;19;20023;-82
2022/11/16 15:41:46;;;;;;;3.97;1.33;;;;;;;13.21;99.47;98324.28;12244006;19;20014;-80
2022/11/16 15:45:54;;;;;;;4.53;1.15;;;;;;;13.19;99.30;98318.22;12252226;19;20009;-80
2022/11/16 15:49:56;;;;;;;5.70;1.58;;;;;;;13.20;99.44;98316.28;12265649;19;20002;-80
2022/11/16 15:54:23;;;;;;;6.25;1.50;;;;;;;13.13;99.64;98313.91;12222212;19;20025;-81
2022/11/16 15:58:27;;;;;;;6.63;1.73;;;;;;;13.05;99.51;98300.78;12200469;19;20345;-80
2022/11/16 16:02:31;;;;;;;7.38;1.48;;;;;;;13.04;99.59;98307.44;12219249;19;20039;-80
2022/11/16 16:06:44;;;;;;;8.32;1.70;;;;;;;13.04;99.78;98307.44;12194601;19;20077;-80
2022/11/16 16:10:56;;;;;;;3.42;1.23;;;;;;;13.06;99.71;98296.06;12224506;19;20103;-81
2022/11/16 16:15:21;;;;;;;4.38;1.15;;;;;;;13.08;100.00;98307.66;12219746;19;20021;-81
2022/11/16 16:19:37;;;;;;;15.77;1.80;;;;;;;13.09;100.00;98309.31;12198938;19;20094;-83
2022/11/16 16:23:46;;;;;;;3.72;1.23;;;;;;;13.11;100.00;98296.78;12219973;19;20010;-80
2022/11/16 16:27:48;;;;;;;3.88;0.98;;;;;;;13.09;99.69;98299.06;12195795;19;20006;-80
2022/11/16 16:31:50;;;;;;;3.95;1.38;;;;;;;13.10;100.00;98300.69;12218033;19;20406;-80
2022/11/16 16:35:51;;;;;;;5.97;1.50;;;;;;;13.13;100.00;98296.50;12220471;19;20031;-80
2022/11/16 16:39:53;;;;;;;9.93;2.60;;;;;;;13.14;100.00;98287.06;12196857;19;20015;-81
2022/11/16 16:43:54;;;;;;;4.18;1.40;;;;;;;13.14;100.00;98289.84;12229006;19;22049;-81
2022/11/16 16:47:56;;;;;;;5.72;1.80;;;;;;;13.09;100.00;98288.00;12224228;19;20094;-81
2022/11/16 16:51:58;;;;;;;11.32;3.35;;;;;;;13.09;100.00;98281.66;12193427;19;20011;-81
2022/11/16 16:56:00;;;;;;;11.35;3.53;;;;;;;13.07;100.00;98289.44;12212785;19;20461;-81
2022/11/16 17:00:02;;;;;;;11.57;2.90;;;;;;;13.06;100.00;98280.31;12219888;19;20022;-81
2022/11/16 17:04:05;;;;;;;5.03;2.67;;;;;;;13.03;100.00;98278.16;12194545;19;20007;-81
2022/11/16 17:08:07;;;;;;;5.50;2.57;;;;;;;13.03;100.00;98272.63;12218217;19;20014;-81
2022/11/16 17:12:09;;;;;;;7.88;2.10;;;;;;;13.03;100.00;98269.88;12215230;19;20018;-81
2022/11/16 17:16:11;;;;;;;4.63;2.00;;;;;;;13.00;100.00;98262.19;12194207;19;20024;-81
2022/11/16 17:20:13;;;;;;;11.52;5.10;;;;;;;13.00;100.00;98262.19;12213632;19;20018;-81
2022/11/16 17:24:15;;;;;;;11.80;4.73;;;;;;;12.97;100.00;98258.06;12190736;19;20034;-80
2022/11/16 17:28:17;;;;;;;12.32;4.75;;;;;;;12.92;100.00;98251.81;12216421;19;20047;-81
2022/11/16 17:32:18;;;;;;;10.07;4.60;;;;;;;12.80;100.00;98238.47;12214623;19;20010;-81
2022/11/16 17:36:20;;;;;;;8.23;3.15;;;;;;;12.62;100.00;98240.16;12194972;19;20034;-81
2022/11/16 17:40:21;;;;;;;10.48;2.75;;;;;;;12.43;100.00;98239.34;12215129;19;20507;-81
2022/11/16 17:44:23;;;;;;;10.05;2.10;;;;;;;12.27;100.00;98234.06;12214010;19;20014;-81
2022/11/16 17:48:25;;;;;;;5.77;1.90;;;;;;;12.18;100.00;98237.81;12196296;19;20027;-81
2022/11/16 17:52:27;;;;;;;6.00;2.60;;;;;;;12.09;100.00;98232.13;12214520;19;20010;-81
2022/11/16 17:56:29;;;;;;;6.25;2.65;;;;;;;12.01;100.00;98230.84;12206734;19;20009;-80
2022/11/16 18:00:31;;;;;;;4.85;1.40;;;;;;;11.98;100.00;98225.91;12195260;19;20457;-81
2022/11/16 18:04:32;;;;;;;5.25;1.50;;;;;;;11.98;100.00;98220.41;12212708;19;20094;-81
2022/11/16 18:08:36;;;;;;;5.68;1.80;;;;;;;12.01;100.00;98217.03;12217500;19;20023;-81
2022/11/16 18:12:37;;;;;;;4.38;1.70;;;;;;;12.10;100.00;98219.94;12193790;19;20047;-81
2022/11/16 18:16:43;;;;;;;5.57;1.27;;;;;;;12.13;100.00;98208.31;12238177;19;20013;-81
2022/11/16 18:20:49;;;;;;;7.05;2.05;;;;;;;12.15;100.00;98211.59;12267197;19;20002;-80
2022/11/16 18:24:51;;;;;;;9.63;3.67;;;;;;;12.21;100.00;98206.81;12196188;19;20404;-81
2022/11/16 18:28:52;;;;;;;10.02;3.35;;;;;;;12.24;100.00;98207.03;12218207;19;20070;-81
2022/11/16 18:32:54;;;;;;;8.82;2.45;;;;;;;12.26;100.00;98199.28;12214474;19;20040;-80
2022/11/16 18:36:56;;;;;;;5.07;2.22;;;;;;;12.27;100.00;98192.63;12194049;19;20030;-81
2022/11/16 18:41:18;;;;;;;7.10;2.45;;;;;;;12.32;100.00;98189.78;12214816;19;20065;-80
2022/11/16 18:45:20;;;;;;;7.30;2.23;;;;;;;12.33;100.00;98171.28;12191741;19;20038;-81
2022/11/16 18:49:22;;;;;;;9.35;1.92;;;;;;;12.34;100.00;98174.84;12212699;19;20102;-81
2022/11/16 18:53:24;;;;;;;9.15;1.77;;;;;;;12.31;100.00;98171.59;12212213;19;20031;-81
2022/11/16 18:57:25;;;;;;;5.73;1.80;;;;;;;12.35;100.00;98171.81;12184812;19;20797;-79
2022/11/16 19:01:27;;;;;;;6.72;1.83;;;;;;;12.40;100.00;98157.06;12212576;19;20007;-81
2022/11/16 19:05:29;;;;;;;12.00;2.20;;;;;;;12.41;100.00;98153.22;12243124;19;20014;-79
2022/11/16 19:09:31;;;;;;;7.05;1.85;;;;;;;12.43;100.00;98148.19;12213475;19;20006;-80
2022/11/16 19:13:32;;;;;;;10.02;1.67;;;;;;;12.44;100.00;98158.94;12209740;19;20011;-81
2022/11/16 19:17:34;;;;;;;3.70;1.25;;;;;;;12.42;100.00;98155.66;12212516;19;20003;-80
2022/11/16 19:21:57;;;;;;;3.90;1.60;;;;;;;12.45;100.00;98157.00;12183107;19;20039;-79
2022/11/16 19:26:00;;;;;;;4.13;1.70;;;;;;;12.50;100.00;98154.16;12210831;19;20018;-80
2022/11/16 19:30:03;;;;;;;4.78;1.30;;;;;;;12.56;100.00;98158.47;12210462;19;20327;-81
2022/11/16 19:34:06;;;;;;;4.47;1.73;;;;;;;12.59;100.00;98165.34;12187721;19;20081;-80
2022/11/16 19:38:08;;;;;;;6.25;1.90;;;;;;;12.60;100.00;98155.91;12211069;19;20010;-81
2022/11/16 19:42:10;;;;;;;5.28;1.90;;;;;;;12.60;100.00;98153.16;12209597;19;20038;-81
2022/11/16 19:46:19;;;;;;;3.90;1.25;;;;;;;12.57;99.82;98148.22;12198462;19;20040;-80
2022/11/16 19:50:22;;;;;;;3.30;1.02;;;;;;;12.53;99.26;98143.31;12220877;19;20102;-81
2022/11/16 19:54:24;;;;;;;3.38;1.02;;;;;;;12.50;98.75;98143.09;12197520;19;20011;-81
2022/11/16 19:58:26;;;;;;;8.88;1.88;;;;;;;12.49;98.37;98141.44;12212486;19;20042;-80